Time;durP1;ratioP1;P1;durP2;ratioP2;P2;SDS_P1;SDS_P2;PMS_P1;PMS_P2;Temp;Humidity;BMP_temperature;BMP_pressure;BME280_temperature;BME280_humidity;BME280_pressure;Samples;Min_cycle;Max_cycle;Signal;HPM_P1;HPM_P2
2022/10/29 00:00:47;;;;;;;22.45;6.18;;;;;;;14.94;60.59;101356.22;4857724;29;20053;-71
2022/10/29 00:03:13;;;;;;;19.95;6.43;;;;;;;15.02;60.20;101367.00;4858031;29;20048;-71
2022/10/29 00:05:40;;;;;;;17.90;6.35;;;;;;;15.06;60.14;101376.44;4857528;29;20053;-72
2022/10/29 00:08:06;;;;;;;23.40;6.53;;;;;;;15.13;59.86;101374.75;4858066;29;20064;-70
2022/10/29 00:10:33;;;;;;;21.17;6.78;;;;;;;15.10;59.91;101372.38;4858936;29;20142;-71
2022/10/29 00:13:01;;;;;;;16.42;5.68;;;;;;;15.12;59.94;101377.59;4857843;29;20053;-71
2022/10/29 00:15:28;;;;;;;22.20;7.25;;;;;;;15.02;60.21;101380.53;4857790;29;20061;-71
2022/10/29 00:17:54;;;;;;;24.17;7.53;;;;;;;15.03;60.24;101379.50;4858103;29;20052;-71
2022/10/29 00:20:22;;;;;;;15.70;5.53;;;;;;;14.99;60.13;101384.41;4858216;29;20080;-71
2022/10/29 00:22:52;;;;;;;23.20;6.05;;;;;;;14.96;60.43;101378.50;4856930;29;20066;-71
2022/10/29 00:25:20;;;;;;;23.17;5.93;;;;;;;14.85;60.84;101382.41;4857861;29;20105;-71
2022/10/29 00:27:46;;;;;;;25.27;6.07;;;;;;;14.77;60.78;101383.28;4857604;29;20053;-71
2022/10/29 00:30:13;;;;;;;29.50;6.45;;;;;;;14.91;60.36;101386.28;4841485;29;20068;-71
2022/10/29 00:32:39;;;;;;;19.10;5.80;;;;;;;14.90;60.30;101400.81;4843618;29;20054;-70
2022/10/29 00:35:06;;;;;;;17.90;5.93;;;;;;;14.88;60.41;101402.84;4839431;29;20054;-68
2022/10/29 00:37:33;;;;;;;25.08;5.80;;;;;;;14.85;60.44;101405.91;4840018;29;20061;-71
2022/10/29 00:40:00;;;;;;;26.10;6.30;;;;;;;14.89;60.33;101405.38;4839180;29;20052;-71
2022/10/29 00:42:26;;;;;;;18.60;6.00;;;;;;;14.94;60.19;101411.09;4856386;29;20062;-70
2022/10/29 00:44:53;;;;;;;29.60;6.72;;;;;;;14.85;60.58;101425.66;4858528;29;20049;-70
2022/10/29 00:47:29;;;;;;;20.73;6.43;;;;;;;14.93;60.06;101419.38;4859015;29;20053;-71
2022/10/29 00:50:17;;;;;;;23.77;6.32;;;;;;;14.87;60.48;101406.53;4858351;29;20062;-71
2022/10/29 00:52:46;;;;;;;23.08;6.57;;;;;;;14.89;60.24;101408.06;4858376;29;20061;-70
2022/10/29 00:55:14;;;;;;;18.40;5.78;;;;;;;14.89;60.40;101407.22;4855754;29;20058;-70
2022/10/29 00:57:47;;;;;;;24.30;6.43;;;;;;;14.80;60.77;101417.19;4857712;29;20054;-71
2022/10/29 01:00:16;;;;;;;25.48;5.68;;;;;;;14.85;60.65;101419.41;4857922;29;20054;-71
2022/10/29 01:02:44;;;;;;;15.00;5.57;;;;;;;14.75;60.97;101406.91;4858019;29;20054;-70
2022/10/29 01:08:57;;;;;;;22.90;6.50;;;;;;;14.91;60.63;101391.69;4856739;29;20057;-68
2022/10/29 01:11:48;;;;;;;23.92;6.75;;;;;;;14.83;61.12;101406.06;4860785;29;20056;-67
2022/10/29 01:14:27;;;;;;;24.05;6.93;;;;;;;14.82;61.32;101408.94;4862168;29;20033;-69
2022/10/29 01:17:13;;;;;;;31.27;6.18;;;;;;;14.88;61.11;101405.56;4862454;29;20050;-66
2022/10/29 01:20:01;;;;;;;25.80;7.15;;;;;;;14.92;61.24;101409.59;4861996;29;21241;-70
2022/10/29 01:23:00;;;;;;;24.73;6.60;;;;;;;14.81;61.71;101402.69;4861921;29;20046;-67
2022/10/29 01:25:42;;;;;;;22.02;6.47;;;;;;;14.71;62.15;101410.97;4827708;29;20060;-68
2022/10/29 01:28:40;;;;;;;28.15;6.15;;;;;;;14.83;61.86;101407.91;4861541;29;20066;-69
2022/10/29 01:31:36;;;;;;;31.90;8.07;;;;;;;14.81;62.10;101401.81;4864517;29;20109;-71
2022/10/29 01:34:12;;;;;;;26.30;6.05;;;;;;;14.82;62.06;101409.78;4880230;29;20053;-68
2022/10/29 01:37:06;;;;;;;26.08;6.78;;;;;;;14.81;62.38;101405.41;4880360;29;20050;-71
2022/10/29 01:39:38;;;;;;;20.08;5.93;;;;;;;14.85;62.25;101404.03;4879797;29;20045;-69
2022/10/29 01:42:23;;;;;;;30.13;6.60;;;;;;;14.84;62.16;101404.19;4879974;29;20056;-70
2022/10/29 01:44:57;;;;;;;24.92;6.32;;;;;;;14.85;62.42;101403.19;4880716;29;20075;-70
2022/10/29 01:47:29;;;;;;;23.58;6.20;;;;;;;14.84;62.51;101417.69;4880158;29;20045;-65
2022/10/29 01:50:03;;;;;;;20.30;6.00;;;;;;;14.79;62.87;101409.28;4879954;29;20041;-68
2022/10/29 01:52:34;;;;;;;19.63;5.53;;;;;;;14.85;62.73;101424.81;4879985;29;20127;-70
2022/10/29 01:55:01;;;;;;;25.83;6.15;;;;;;;14.77;62.94;101421.09;4880053;29;20053;-70
2022/10/29 01:57:31;;;;;;;21.15;6.15;;;;;;;14.80;63.02;101417.19;4879992;29;20060;-69
2022/10/29 02:00:10;;;;;;;25.87;6.57;;;;;;;14.80;62.93;101421.75;4879834;29;20053;-69
2022/10/29 02:03:04;;;;;;;21.50;6.50;;;;;;;14.69;63.65;101426.47;4879978;29;20060;-69
2022/10/29 02:05:38;;;;;;;30.73;7.00;;;;;;;14.67;63.66;101433.91;4880153;29;20052;-68
2022/10/29 02:08:28;;;;;;;17.52;6.30;;;;;;;14.78;63.18;101432.75;4870811;29;20053;-61
2022/10/29 02:11:06;;;;;;;29.17;6.85;;;;;;;14.76;63.26;101432.91;4860933;29;20478;-61
2022/10/29 02:13:50;;;;;;;19.35;6.30;;;;;;;14.74;63.37;101426.00;4861426;29;20050;-61
2022/10/29 02:16:17;;;;;;;26.42;7.85;;;;;;;14.71;63.63;101432.59;4860949;29;20049;-61
2022/10/29 02:18:46;;;;;;;25.50;6.95;;;;;;;14.72;63.50;101436.97;4861229;29;20108;-62
2022/10/29 02:21:17;;;;;;;17.38;7.05;;;;;;;14.74;63.52;101434.94;4860898;29;20054;-61
2022/10/29 02:23:44;;;;;;;24.52;6.40;;;;;;;14.74;63.47;101443.06;4860483;29;20045;-61
2022/10/29 02:26:11;;;;;;;25.08;6.32;;;;;;;14.67;63.64;101449.25;4860786;29;20049;-62
2022/10/29 02:28:38;;;;;;;26.08;6.95;;;;;;;14.65;63.64;101459.38;4860601;29;20053;-62
2022/10/29 02:31:04;;;;;;;22.92;6.72;;;;;;;14.63;63.92;101453.31;4860785;29;20056;-62
2022/10/29 02:33:31;;;;;;;19.75;7.13;;;;;;;14.59;63.90;101458.19;4860608;29;20524;-62
2022/10/29 02:35:57;;;;;;;24.95;6.72;;;;;;;14.61;63.89;101466.16;4861255;29;20061;-64
2022/10/29 02:38:24;;;;;;;25.65;6.70;;;;;;;14.64;63.83;101455.84;4861550;29;20056;-65
2022/10/29 02:40:50;;;;;;;21.98;6.38;;;;;;;14.63;64.06;101462.25;4860985;29;20058;-63
2022/10/29 02:43:17;;;;;;;27.75;6.65;;;;;;;14.68;63.81;101461.75;4861031;29;20051;-61
2022/10/29 02:45:44;;;;;;;34.88;7.38;;;;;;;14.68;63.51;101462.59;4861099;29;20168;-63
2022/10/29 02:48:11;;;;;;;27.30;7.45;;;;;;;14.63;64.10;101470.34;4861269;29;20520;-61
2022/10/29 02:50:37;;;;;;;31.60;6.80;;;;;;;14.70;63.79;101465.97;4860330;29;20516;-61
2022/10/29 02:53:04;;;;;;;29.52;7.00;;;;;;;14.70;63.67;101465.09;4860021;29;20518;-64
2022/10/29 02:55:30;;;;;;;28.50;7.15;;;;;;;14.69;63.83;101479.63;4859697;29;20057;-63
2022/10/29 02:57:57;;;;;;;23.23;6.95;;;;;;;14.66;63.76;101463.75;4859727;29;20064;-63
2022/10/29 03:00:24;;;;;;;27.33;6.57;;;;;;;14.63;63.82;101464.94;4860442;29;20056;-63
2022/10/29 03:02:51;;;;;;;23.52;7.35;;;;;;;14.69;63.89;101464.28;4859600;29;20053;-64
2022/10/29 03:05:18;;;;;;;24.67;6.65;;;;;;;14.64;64.07;101455.84;4859245;29;20050;-64
2022/10/29 03:07:44;;;;;;;22.33;6.63;;;;;;;14.68;64.03;101454.50;4859253;29;20054;-64
2022/10/29 03:10:11;;;;;;;40.65;7.35;;;;;;;14.63;64.22;101464.09;4859276;29;20061;-64
2022/10/29 03:12:37;;;;;;;25.05;6.85;;;;;;;14.61;64.14;101466.97;4859460;29;20060;-63
2022/10/29 03:15:04;;;;;;;28.92;7.15;;;;;;;14.68;63.92;101472.56;4859341;29;20056;-63
2022/10/29 03:17:31;;;;;;;29.95;6.97;;;;;;;14.52;64.24;101467.97;4859237;29;20060;-64
2022/10/29 03:19:57;;;;;;;22.45;6.60;;;;;;;14.53;64.34;101459.72;4859252;29;20072;-63
2022/10/29 03:22:24;;;;;;;22.42;6.43;;;;;;;14.54;64.37;101455.16;4859391;29;20053;-64
2022/10/29 03:24:50;;;;;;;23.88;6.68;;;;;;;14.56;64.28;101458.53;4858680;29;20053;-64
2022/10/29 03:27:17;;;;;;;27.77;7.80;;;;;;;14.54;64.36;101460.56;4840834;29;20075;-63
2022/10/29 03:29:43;;;;;;;24.42;7.25;;;;;;;14.50;64.30;101448.44;4840386;29;20057;-63
2022/10/29 03:32:10;;;;;;;20.52;7.30;;;;;;;14.45;64.57;101451.59;4840712;29;20058;-63
2022/10/29 03:34:36;;;;;;;37.55;7.50;;;;;;;14.41;64.82;101460.22;4840648;29;20529;-63
2022/10/29 03:37:03;;;;;;;33.85;7.57;;;;;;;14.49;64.54;101463.75;4840814;29;20526;-64
2022/10/29 03:39:29;;;;;;;28.65;7.78;;;;;;;14.42;64.92;101460.03;4840475;29;20529;-65
2022/10/29 03:41:56;;;;;;;28.45;8.32;;;;;;;14.38;64.80;101468.66;4840673;29;20054;-64
2022/10/29 03:44:22;;;;;;;21.95;6.85;;;;;;;14.43;64.65;101477.13;4840986;29;20507;-64
2022/10/29 03:46:49;;;;;;;30.13;8.45;;;;;;;14.35;65.07;101482.47;4840323;29;20417;-63
2022/10/29 03:49:15;;;;;;;27.17;8.10;;;;;;;14.22;65.43;101473.03;4840406;29;20053;-64
2022/10/29 03:51:41;;;;;;;25.33;7.13;;;;;;;14.16;65.51;101478.25;4824290;29;20057;-62
2022/10/29 03:54:08;;;;;;;26.27;7.40;;;;;;;14.11;65.71;101476.03;4840341;29;20049;-63
2022/10/29 03:56:34;;;;;;;25.55;6.90;;;;;;;14.16;65.39;101468.28;4840225;29;20046;-65
2022/10/29 03:59:01;;;;;;;25.73;7.97;;;;;;;14.07;65.67;101474.66;4840383;29;20058;-64
2022/10/29 04:01:28;;;;;;;27.33;8.05;;;;;;;14.00;66.35;101473.63;4840206;29;20053;-65
2022/10/29 04:03:54;;;;;;;32.30;8.00;;;;;;;14.06;65.96;101481.06;4840480;29;20487;-64
2022/10/29 04:06:21;;;;;;;28.63;8.40;;;;;;;13.97;66.38;101492.84;4840287;29;20050;-64
2022/10/29 04:08:47;;;;;;;28.45;8.57;;;;;;;13.92;66.60;101485.25;4840162;29;20056;-64
2022/10/29 04:11:14;;;;;;;25.52;8.50;;;;;;;14.08;66.10;101489.00;4840073;29;20076;-64
2022/10/29 04:13:40;;;;;;;31.20;7.93;;;;;;;13.96;66.25;101488.47;4839895;29;20054;-63
2022/10/29 04:16:07;;;;;;;31.30;7.22;;;;;;;13.96;66.24;101489.31;4840178;29;20081;-63
2022/10/29 04:18:33;;;;;;;27.60;8.30;;;;;;;14.05;65.93;101495.59;4839932;29;20517;-65
2022/10/29 04:21:01;;;;;;;26.13;7.38;;;;;;;14.05;65.84;101488.34;4839709;29;20061;-63
2022/10/29 04:23:48;;;;;;;23.70;8.50;;;;;;;13.91;66.29;101486.28;4839411;29;20054;-64
2022/10/29 04:26:35;;;;;;;33.25;8.02;;;;;;;13.80;66.78;101491.94;4839470;29;20126;-65
2022/10/29 04:29:21;;;;;;;25.95;7.38;;;;;;;13.88;66.53;101485.75;4839571;29;20046;-65
2022/10/29 04:31:48;;;;;;;32.22;8.85;;;;;;;13.91;66.43;101485.41;4847306;29;20057;-63
2022/10/29 04:34:14;;;;;;;31.40;8.02;;;;;;;13.95;66.21;101486.78;4858170;29;20054;-63
2022/10/29 04:36:41;;;;;;;24.50;8.27;;;;;;;13.93;66.30;101478.00;4858071;29;20049;-65
2022/10/29 04:39:07;;;;;;;32.42;8.95;;;;;;;13.91;66.42;101478.19;4858103;29;20426;-65
2022/10/29 04:41:34;;;;;;;28.27;9.32;;;;;;;13.80;66.92;101476.63;4859479;29;20060;-63
2022/10/29 04:44:01;;;;;;;27.50;9.30;;;;;;;13.84;66.82;101469.06;4861851;29;20068;-63
2022/10/29 04:46:28;;;;;;;32.75;8.48;;;;;;;13.85;66.81;101462.63;4861727;29;20049;-63
2022/10/29 04:48:54;;;;;;;36.20;9.73;;;;;;;13.64;67.64;101465.75;4845804;29;20414;-63
2022/10/29 04:51:23;;;;;;;30.27;8.93;;;;;;;13.71;67.26;101461.38;4861777;29;20125;-63
2022/10/29 04:53:50;;;;;;;22.88;7.65;;;;;;;13.66;67.88;101465.56;4861636;29;20049;-63
2022/10/29 04:56:17;;;;;;;20.95;7.85;;;;;;;13.64;67.65;101468.44;4861429;29;20056;-65
2022/10/29 04:58:43;;;;;;;30.80;8.27;;;;;;;13.66;67.77;101496.06;4861531;29;20053;-62
2022/10/29 05:01:10;;;;;;;22.88;7.57;;;;;;;13.63;67.79;101504.50;4867290;29;20057;-68
2022/10/29 05:03:37;;;;;;;34.15;8.02;;;;;;;13.53;67.71;101495.69;4882754;29;20054;-69
2022/10/29 05:06:04;;;;;;;28.52;8.20;;;;;;;13.57;67.79;101483.56;4877292;29;20053;-70
2022/10/29 05:08:32;;;;;;;28.70;7.85;;;;;;;13.64;67.63;101490.00;4864638;29;20049;-70
2022/10/29 05:11:03;;;;;;;25.30;8.13;;;;;;;13.67;67.28;101491.53;4864825;29;20092;-68
2022/10/29 05:13:30;;;;;;;23.27;7.38;;;;;;;13.75;67.14;101499.66;4864463;29;20073;-66
2022/10/29 05:15:56;;;;;;;37.00;8.13;;;;;;;13.78;67.09;101486.72;4864933;29;20042;-67
2022/10/29 05:18:23;;;;;;;27.70;8.38;;;;;;;13.76;67.19;101496.81;4863949;29;20113;-70
2022/10/29 05:20:56;;;;;;;29.38;7.63;;;;;;;13.73;67.43;101501.66;4863954;29;20054;-69
2022/10/29 05:23:23;;;;;;;22.85;8.13;;;;;;;13.71;67.33;101498.28;4863945;29;20109;-69
2022/10/29 05:25:50;;;;;;;21.42;8.05;;;;;;;13.81;67.04;101496.34;4864218;29;20050;-69
2022/10/29 05:28:20;;;;;;;24.63;8.48;;;;;;;13.68;67.39;101502.16;4864861;29;20049;-71
2022/10/29 05:30:49;;;;;;;30.17;8.77;;;;;;;13.74;67.16;101503.38;4864458;29;20144;-69
2022/10/29 05:33:18;;;;;;;22.50;8.05;;;;;;;13.63;67.65;101509.91;4845607;29;20054;-70
2022/10/29 05:35:46;;;;;;;17.20;7.38;;;;;;;13.59;67.55;101509.38;4845958;29;20047;-71
2022/10/29 05:38:13;;;;;;;24.92;8.30;;;;;;;13.64;67.30;101508.88;4844485;29;20068;-70
2022/10/29 05:40:43;;;;;;;33.30;8.52;;;;;;;13.59;67.66;101503.09;4845381;29;20118;-70
2022/10/29 05:43:11;;;;;;;33.90;8.50;;;;;;;13.65;67.28;101504.31;4845175;29;20083;-70
2022/10/29 05:45:38;;;;;;;25.63;8.88;;;;;;;13.38;68.42;101499.97;4845705;29;20488;-70
2022/10/29 05:48:05;;;;;;;26.58;9.30;;;;;;;13.42;68.30;101504.03;4842186;29;20062;-71
2022/10/29 05:50:33;;;;;;;28.25;8.98;;;;;;;13.34;68.65;101502.13;4825165;29;20050;-70
2022/10/29 05:53:01;;;;;;;26.13;8.40;;;;;;;13.15;69.13;101484.34;4823980;29;20062;-71
2022/10/29 05:55:30;;;;;;;26.55;7.95;;;;;;;13.02;69.83;101490.16;4824646;29;20046;-71
2022/10/29 05:57:59;;;;;;;27.92;9.40;;;;;;;13.16;69.50;101491.41;4824972;29;20066;-68
2022/10/29 06:00:28;;;;;;;22.00;8.27;;;;;;;13.15;69.45;101488.91;4809210;29;20051;-71
2022/10/29 06:02:55;;;;;;;25.02;9.13;;;;;;;13.04;69.84;101489.97;4830128;29;20052;-72
2022/10/29 06:05:22;;;;;;;30.30;8.48;;;;;;;12.87;70.31;101491.72;4842683;29;20046;-70
2022/10/29 06:08:07;;;;;;;23.50;9.43;;;;;;;13.26;68.88;101500.25;4842556;29;20050;-71
2022/10/29 06:10:34;;;;;;;28.15;9.13;;;;;;;13.29;68.75;101501.78;4842856;29;20061;-72
2022/10/29 06:13:00;;;;;;;24.38;8.80;;;;;;;13.26;68.90;101508.31;4843788;29;20069;-71
2022/10/29 06:15:27;;;;;;;23.30;8.25;;;;;;;13.11;69.41;101507.19;4843828;29;20050;-71
2022/10/29 06:17:53;;;;;;;26.63;8.32;;;;;;;13.20;69.33;101502.72;4843095;29;20053;-72
2022/10/29 06:20:20;;;;;;;21.40;8.48;;;;;;;13.41;68.75;101499.66;4842980;29;20046;-71
2022/10/29 06:22:55;;;;;;;28.02;8.77;;;;;;;13.43;68.42;101508.44;4842546;29;20087;-71
2022/10/29 06:25:24;;;;;;;20.35;8.40;;;;;;;13.27;68.82;101503.78;4843460;29;20046;-72
2022/10/29 06:28:17;;;;;;;31.35;9.52;;;;;;;13.18;69.48;101516.38;4843144;29;20049;-72
2022/10/29 06:30:49;;;;;;;31.65;9.15;;;;;;;13.30;69.35;101520.47;4856568;29;20025;-70
2022/10/29 06:33:17;;;;;;;28.88;9.10;;;;;;;13.23;69.30;101521.28;4842364;29;20068;-61
2022/10/29 06:35:45;;;;;;;37.90;10.32;;;;;;;13.30;69.19;101525.88;4824329;29;20050;-61
2022/10/29 06:38:11;;;;;;;31.52;9.70;;;;;;;13.35;68.54;101528.06;4824173;29;20058;-61
2022/10/29 06:40:39;;;;;;;32.25;10.93;;;;;;;13.45;68.58;101526.13;4824443;29;20054;-61
2022/10/29 06:43:10;;;;;;;33.67;12.75;;;;;;;13.30;68.97;101527.72;4824133;29;20058;-63
2022/10/29 06:45:36;;;;;;;33.10;10.23;;;;;;;13.71;67.72;101525.25;4829059;29;20070;-68
2022/10/29 06:48:06;;;;;;;28.23;8.65;;;;;;;13.79;67.30;101530.72;4843958;29;20426;-68
2022/10/29 06:50:33;;;;;;;30.23;9.10;;;;;;;13.98;66.80;101530.47;4843511;29;20034;-67
2022/10/29 06:53:04;;;;;;;25.70;8.20;;;;;;;13.95;66.68;101532.66;4843877;29;20426;-67
2022/10/29 06:55:34;;;;;;;;;;;;;;;13.84;67.13;101533.78;4844417;29;20069;-70
2022/10/29 06:58:03;;;;;;;24.88;8.75;;;;;;;13.86;67.22;101537.16;4831548;29;19932;-71
2022/10/29 07:00:31;;;;;;;27.52;9.55;;;;;;;13.92;67.14;101532.97;4824006;29;20403;-71
2022/10/29 07:02:58;;;;;;;24.58;9.00;;;;;;;13.96;66.96;101542.41;4824450;29;20062;-70
2022/10/29 07:05:26;;;;;;;28.33;8.75;;;;;;;13.82;67.38;101536.63;4822295;29;20411;-69
2022/10/29 07:07:57;;;;;;;24.98;10.50;;;;;;;13.86;67.39;101541.69;4823116;29;20077;-71
2022/10/29 07:10:26;;;;;;;30.40;11.25;;;;;;;13.78;67.71;101532.56;4823259;29;20062;-71
2022/10/29 07:12:52;;;;;;;30.65;11.65;;;;;;;13.63;68.20;101539.56;4822906;29;20917;-70
2022/10/29 07:15:19;;;;;;;31.45;9.27;;;;;;;13.82;67.52;101541.19;4822830;29;20050;-71
2022/10/29 07:18:03;;;;;;;28.23;9.52;;;;;;;13.67;68.11;101535.53;4822696;29;20470;-72
2022/10/29 07:20:33;;;;;;;29.08;10.00;;;;;;;13.86;67.56;101545.25;4823080;29;20057;-71
2022/10/29 07:23:02;;;;;;;21.40;9.30;;;;;;;14.00;67.43;101544.63;4822513;29;20050;-70
2022/10/29 07:25:30;;;;;;;25.48;8.32;;;;;;;14.10;66.92;101543.66;4823081;29;20069;-71
2022/10/29 07:28:19;;;;;;;27.90;8.50;;;;;;;14.30;66.09;101540.50;4823034;29;20061;-71
2022/10/29 07:30:47;;;;;;;25.17;10.15;;;;;;;14.22;66.30;101551.28;4822422;29;20046;-72
2022/10/29 07:33:14;;;;;;;26.35;9.05;;;;;;;14.41;66.04;101549.31;4822863;29;20054;-72
2022/10/29 07:35:40;;;;;;;32.78;11.05;;;;;;;14.49;65.58;101558.25;4822707;29;20388;-70
2022/10/29 07:38:08;;;;;;;22.63;7.40;;;;;;;14.51;65.85;101561.66;4822601;29;20055;-71
2022/10/29 07:40:46;;;;;;;30.48;8.95;;;;;;;14.67;65.29;101558.13;4822419;29;20050;-72
2022/10/29 07:43:12;;;;;;;28.60;8.10;;;;;;;14.68;65.07;101561.69;4822296;29;20061;-70
2022/10/29 07:45:40;;;;;;;33.13;7.90;;;;;;;14.66;65.30;101563.69;4822910;29;20050;-71
2022/10/29 07:48:08;;;;;;;34.83;8.85;;;;;;;14.84;64.66;101561.72;4822813;29;20384;-72
2022/10/29 07:50:36;;;;;;;26.02;8.02;;;;;;;14.93;64.45;101562.56;4823447;29;20395;-72
2022/10/29 07:53:05;;;;;;;25.95;7.70;;;;;;;14.93;64.45;101566.13;4838671;29;20050;-69
2022/10/29 07:55:31;;;;;;;24.67;7.78;;;;;;;14.98;64.25;101565.59;4842053;29;20034;-68
2022/10/29 07:58:01;;;;;;;23.65;7.70;;;;;;;15.05;64.26;101572.03;4842255;29;20058;-69
2022/10/29 08:00:29;;;;;;;31.02;7.38;;;;;;;15.11;63.95;101579.44;4842787;29;20051;-68
2022/10/29 08:02:56;;;;;;;28.42;7.43;;;;;;;15.39;63.38;101569.13;4842086;29;20060;-70
2022/10/29 08:05:24;;;;;;;25.02;7.60;;;;;;;15.39;63.21;101562.88;4842087;29;20082;-70
2022/10/29 08:07:54;;;;;;;27.80;7.72;;;;;;;15.38;63.11;101563.91;4842617;29;20114;-69
2022/10/29 08:10:23;;;;;;;28.33;7.75;;;;;;;15.81;62.01;101565.34;4842505;29;20079;-70
2022/10/29 08:12:54;;;;;;;29.67;7.65;;;;;;;16.03;61.35;101573.72;4842044;29;20107;-69
2022/10/29 08:15:23;;;;;;;30.20;6.90;;;;;;;16.04;60.92;101557.28;4842152;29;20085;-70
2022/10/29 08:17:49;;;;;;;23.48;7.63;;;;;;;16.01;60.65;101557.66;4842180;29;20032;-70
2022/10/29 08:20:17;;;;;;;28.33;7.43;;;;;;;16.10;60.57;101564.72;4842150;29;20064;-70
2022/10/29 08:22:44;;;;;;;30.73;8.00;;;;;;;16.20;60.63;101567.22;4841463;29;20053;-70
2022/10/29 08:25:11;;;;;;;22.02;7.35;;;;;;;16.36;60.10;101574.41;4842397;29;20070;-69
2022/10/29 08:27:37;;;;;;;25.73;7.63;;;;;;;16.58;59.68;101572.78;4841336;29;20061;-69
2022/10/29 08:30:06;;;;;;;22.77;6.78;;;;;;;16.97;59.02;101571.81;4843282;29;20081;-70
2022/10/29 08:32:32;;;;;;;29.88;6.70;;;;;;;17.30;57.85;101572.38;4868591;29;20049;-69
2022/10/29 08:34:58;;;;;;;22.42;6.78;;;;;;;17.40;57.02;101570.25;4879243;29;20110;-69
2022/10/29 08:37:25;;;;;;;22.30;6.18;;;;;;;17.55;56.78;101570.31;4879134;29;20054;-70
2022/10/29 09:15:09;;;;;;;20.38;6.15;;;;;;;18.40;53.83;101563.50;5349588;23;20032;-70
2022/10/29 09:18:02;;;;;;;22.80;5.97;;;;;;;18.46;53.79;101574.44;4911751;29;20556;-70
2022/10/29 09:20:37;;;;;;;30.08;5.63;;;;;;;18.60;53.93;101582.75;4874494;29;20409;-71
2022/10/29 09:26:46;;;;;;;28.70;6.05;;;;;;;19.52;51.47;101576.47;4912914;29;20050;-71
2022/10/29 09:29:31;;;;;;;28.25;5.65;;;;;;;20.02;49.87;101591.69;4915487;29;20056;-71
2022/10/29 09:32:03;;;;;;;25.50;7.07;;;;;;;19.96;49.81;101585.16;4915435;29;20056;-70
2022/10/29 09:34:36;;;;;;;21.67;6.20;;;;;;;20.02;49.50;101588.97;4914809;29;20056;-64
2022/10/29 09:37:12;;;;;;;23.08;6.43;;;;;;;20.06;49.42;101589.41;4916315;29;20048;-64
2022/10/29 09:39:40;;;;;;;21.05;5.93;;;;;;;20.03;49.22;101578.91;4915637;29;20048;-63
2022/10/29 09:42:18;;;;;;;25.75;6.13;;;;;;;19.71;50.31;101579.38;4916282;29;20056;-62
2022/10/29 09:44:57;;;;;;;24.23;6.85;;;;;;;19.37;51.39;101582.88;4915575;29;20058;-61
2022/10/29 09:47:55;;;;;;;31.20;5.97;;;;;;;20.02;49.23;101577.22;4915697;29;20059;-61
2022/10/29 09:50:25;;;;;;;21.95;5.78;;;;;;;19.63;50.35;101568.63;4916097;29;20135;-61
2022/10/29 09:52:52;;;;;;;23.48;5.47;;;;;;;19.37;50.80;101562.97;4915456;29;20047;-62
2022/10/29 09:55:27;;;;;;;20.65;5.93;;;;;;;19.15;51.60;101573.91;4915342;29;20060;-63
2022/10/29 09:57:55;;;;;;;27.25;6.60;;;;;;;19.29;51.08;101563.13;4915718;29;20044;-61
2022/10/29 10:00:25;;;;;;;26.42;5.88;;;;;;;19.29;51.19;101566.69;4914505;29;20055;-61
2022/10/29 10:03:14;;;;;;;31.20;6.95;;;;;;;19.14;51.80;101553.19;4915253;29;20058;-61
2022/10/29 10:05:58;;;;;;;19.15;5.35;;;;;;;18.91;52.07;101556.09;4916199;29;20139;-62
2022/10/29 10:08:25;;;;;;;24.13;7.45;;;;;;;18.31;53.71;101557.38;4915936;29;20084;-62
2022/10/29 10:10:58;;;;;;;25.75;8.05;;;;;;;18.34;53.89;101554.22;4914033;29;20048;-65
2022/10/29 10:13:30;;;;;;;25.60;8.07;;;;;;;18.41;53.80;101559.75;4914249;29;20412;-64
2022/10/29 10:16:02;;;;;;;41.00;7.15;;;;;;;18.09;54.50;101559.13;4877089;29;20078;-63
2022/10/29 10:18:32;;;;;;;20.23;6.38;;;;;;;18.23;54.22;101555.56;4877059;29;20409;-63
2022/10/29 10:20:58;;;;;;;22.48;6.13;;;;;;;18.44;54.01;101551.22;4877574;29;20053;-63
2022/10/29 10:23:26;;;;;;;26.85;6.53;;;;;;;19.21;52.05;101545.94;4876937;29;20064;-63
2022/10/29 10:25:57;;;;;;;22.92;7.00;;;;;;;19.80;50.58;101544.66;4878117;29;20064;-63
2022/10/29 10:28:33;;;;;;;30.45;6.90;;;;;;;20.18;49.48;101536.03;4876356;29;20060;-63
2022/10/29 10:31:02;;;;;;;20.38;6.22;;;;;;;20.38;48.46;101528.72;4875990;29;20378;-63
2022/10/29 10:33:31;;;;;;;18.73;5.43;;;;;;;19.65;50.34;101527.56;4873055;29;20053;-63
2022/10/29 10:36:04;;;;;;;29.80;6.18;;;;;;;20.25;49.07;101523.28;4875685;29;20087;-64
2022/10/29 10:38:40;;;;;;;30.02;6.65;;;;;;;20.75;47.96;101528.41;4873682;29;20051;-63
2022/10/29 10:41:09;;;;;;;26.58;6.22;;;;;;;20.96;46.91;101530.09;4869317;29;20044;-64
2022/10/29 10:43:40;;;;;;;26.60;6.30;;;;;;;20.35;48.14;101526.44;4875760;29;20523;-63
2022/10/29 10:46:31;;;;;;;23.73;5.63;;;;;;;20.51;48.34;101527.13;4876396;29;20053;-64
2022/10/29 10:48:59;;;;;;;20.88;6.60;;;;;;;20.83;47.10;101539.13;4859645;29;20528;-64
2022/10/29 10:51:32;;;;;;;27.27;5.57;;;;;;;21.03;46.48;101541.84;4875704;29;20045;-64
2022/10/29 10:54:02;;;;;;;23.33;5.88;;;;;;;21.53;45.65;101537.66;4876526;29;20052;-64
2022/10/29 10:56:29;;;;;;;34.45;6.07;;;;;;;21.27;45.88;101546.69;4873952;29;20057;-63
2022/10/29 10:59:10;;;;;;;19.45;5.78;;;;;;;21.69;44.84;101540.94;4875601;29;20053;-62
2022/10/29 11:01:41;;;;;;;28.27;6.28;;;;;;;21.03;46.58;101536.41;4876056;29;20045;-61
2022/10/29 11:04:17;;;;;;;19.10;4.15;;;;;;;21.62;45.58;101532.78;4875761;29;20045;-62
2022/10/29 11:06:48;;;;;;;24.30;5.80;;;;;;;21.94;44.76;101533.75;4875575;29;20060;-62
2022/10/29 11:09:32;;;;;;;20.73;5.35;;;;;;;22.24;43.95;101534.03;4874625;29;20132;-62
2022/10/29 11:12:10;;;;;;;22.70;5.43;;;;;;;21.91;44.51;101531.47;4876165;29;20060;-62
2022/10/29 11:14:45;;;;;;;21.67;5.55;;;;;;;21.44;45.81;101518.97;4883570;29;20049;-61
2022/10/29 11:17:25;;;;;;;26.73;5.47;;;;;;;21.85;44.73;101511.31;4893140;29;20041;-63
2022/10/29 11:19:56;;;;;;;17.02;5.07;;;;;;;21.92;44.10;101518.66;4894733;29;20077;-61
2022/10/29 11:23:01;;;;;;;28.63;5.70;;;;;;;22.48;42.90;101509.75;4893071;29;20048;-62
2022/10/29 11:25:46;;;;;;;23.45;5.25;;;;;;;22.16;43.47;101501.50;4859117;29;20060;-61
2022/10/29 11:28:37;;;;;;;21.35;5.93;;;;;;;21.23;45.71;101493.59;4893365;29;20056;-61
2022/10/29 11:31:33;;;;;;;26.92;6.18;;;;;;;21.23;45.80;101482.69;4892964;29;20052;-61
2022/10/29 11:34:09;;;;;;;26.15;5.60;;;;;;;21.48;45.45;101484.72;4893381;29;20051;-61
2022/10/29 11:36:41;;;;;;;19.10;5.18;;;;;;;21.85;44.48;101483.16;4893945;29;20048;-62
2022/10/29 11:39:16;;;;;;;21.67;5.55;;;;;;;21.68;44.55;101480.03;4893286;29;20056;-62
2022/10/29 11:41:57;;;;;;;19.55;5.47;;;;;;;21.26;45.70;101475.97;4890561;29;20048;-61
2022/10/29 11:44:24;;;;;;;20.90;5.32;;;;;;;21.91;44.24;101478.69;4892974;29;20093;-61
2022/10/29 11:47:17;;;;;;;19.00;5.15;;;;;;;21.37;45.64;101481.59;4892321;29;20045;-60
2022/10/29 11:50:08;;;;;;;18.33;5.30;;;;;;;21.65;45.40;101479.63;4891509;29;20493;-61
2022/10/29 11:52:58;;;;;;;21.40;6.00;;;;;;;21.72;45.18;101478.56;4886415;29;20045;-61
2022/10/29 11:55:45;;;;;;;22.83;5.47;;;;;;;22.17;44.42;101466.81;4892643;29;20049;-60
2022/10/29 11:58:32;;;;;;;15.65;5.40;;;;;;;22.79;43.26;101465.13;4892191;29;20052;-62
2022/10/29 12:01:22;;;;;;;15.43;4.57;;;;;;;23.33;41.61;101459.97;4893711;29;20497;-61
2022/10/29 12:04:07;;;;;;;32.70;6.80;;;;;;;22.99;41.71;101459.47;4892926;29;20485;-61
2022/10/29 12:06:57;;;;;;;19.00;5.88;;;;;;;22.60;42.80;101458.75;4892750;29;20048;-61
2022/10/29 12:09:26;;;;;;;23.15;6.53;;;;;;;21.36;45.52;101458.09;4894050;29;20077;-61
2022/10/29 12:12:16;;;;;;;21.70;5.78;;;;;;;21.37;45.76;101448.84;4894779;29;20500;-62
2022/10/29 12:15:09;;;;;;;28.67;6.88;;;;;;;21.33;46.02;101444.03;4893004;29;20052;-61
2022/10/29 12:17:51;;;;;;;20.48;5.57;;;;;;;21.51;46.10;101436.00;4858901;29;20055;-62
2022/10/29 12:20:29;;;;;;;25.70;6.50;;;;;;;20.90;47.20;101437.19;4893982;29;20045;-62